Time;durP1;ratioP1;P1;durP2;ratioP2;P2;SDS_P1;SDS_P2;PMS_P1;PMS_P2;Temp;Humidity;BMP_temperature;BMP_pressure;BME280_temperature;BME280_humidity;BME280_pressure;Samples;Min_cycle;Max_cycle;Signal;HPM_P1;HPM_P2
2023/07/30 00:02:21;;;;;;;11.63;4.60;;;15.40;99.90;;;;;;5107151;27;20043;-82
2023/07/30 00:04:48;;;;;;;12.70;4.60;;;15.30;99.90;;;;;;5105574;27;20040;-83
2023/07/30 00:07:14;;;;;;;10.73;4.13;;;15.30;99.90;;;;;;5095472;27;20061;-84
2023/07/30 00:09:40;;;;;;;13.90;4.70;;;15.30;99.90;;;;;;5090268;27;20518;-83
2023/07/30 00:12:07;;;;;;;16.65;4.65;;;15.30;99.90;;;;;;5099394;27;20040;-83
2023/07/30 00:14:33;;;;;;;15.73;4.50;;;15.30;99.90;;;;;;5104405;27;20117;-83
2023/07/30 00:16:59;;;;;;;10.93;3.92;;;15.30;99.90;;;;;;5074836;27;20176;-83
2023/07/30 00:19:24;;;;;;;8.23;3.75;;;15.30;99.90;;;;;;5107644;27;20203;-83
2023/07/30 00:21:50;;;;;;;9.65;3.95;;;15.30;99.90;;;;;;5100322;28;20035;-83
2023/07/30 00:24:16;;;;;;;9.18;4.13;;;15.30;99.90;;;;;;5120087;27;20529;-83
2023/07/30 00:26:41;;;;;;;10.00;4.20;;;15.20;99.90;;;;;;5089564;27;20282;-83
2023/07/30 00:29:07;;;;;;;11.38;4.03;;;15.30;99.90;;;;;;5110888;27;20038;-83
2023/07/30 00:31:33;;;;;;;10.57;3.88;;;15.20;99.90;;;;;;5091169;27;20027;-84
2023/07/30 00:33:58;;;;;;;9.07;4.15;;;15.20;99.90;;;;;;5120658;27;20486;-83
2023/07/30 00:36:24;;;;;;;9.88;3.60;;;15.20;99.90;;;;;;5085122;27;20042;-83
2023/07/30 00:38:50;;;;;;;12.90;4.00;;;15.20;99.90;;;;;;5084690;27;20071;-83
2023/07/30 00:41:15;;;;;;;11.25;3.80;;;15.20;99.90;;;;;;5101994;27;20047;-84
2023/07/30 00:43:41;;;;;;;8.45;3.80;;;15.20;99.90;;;;;;5079587;28;20086;-84
2023/07/30 00:46:07;;;;;;;9.73;3.60;;;15.20;99.90;;;;;;5110477;27;20062;-83
2023/07/30 00:48:33;;;;;;;14.23;4.07;;;15.10;99.90;;;;;;5104001;27;20339;-83
2023/07/30 00:51:00;;;;;;;13.23;4.45;;;15.10;99.90;;;;;;5118779;27;20505;-83
2023/07/30 00:53:29;;;;;;;8.55;3.50;;;15.10;99.90;;;;;;5097496;27;20054;-84
2023/07/30 00:55:55;;;;;;;8.88;4.15;;;15.10;99.90;;;;;;5113623;27;20035;-83
2023/07/30 00:58:21;;;;;;;8.35;3.63;;;15.10;99.90;;;;;;5087879;27;20038;-83
2023/07/30 01:00:47;;;;;;;10.93;4.70;;;15.10;99.90;;;;;;5124772;27;20138;-83
2023/07/30 01:03:13;;;;;;;9.25;3.58;;;15.20;99.90;;;;;;5096184;27;20159;-83
2023/07/30 01:05:39;;;;;;;13.18;3.85;;;15.20;99.90;;;;;;5083675;27;20444;-83
2023/07/30 01:08:04;;;;;;;12.77;4.18;;;15.20;99.90;;;;;;5116217;27;20435;-84
2023/07/30 01:10:32;;;;;;;8.18;3.90;;;15.20;99.90;;;;;;5089725;27;20039;-83
2023/07/30 01:13:01;;;;;;;12.13;4.57;;;15.30;99.90;;;;;;5122343;27;20327;-84
2023/07/30 01:15:28;;;;;;;13.55;4.63;;;15.40;99.90;;;;;;5115976;27;20515;-84
2023/07/30 01:17:54;;;;;;;17.23;4.60;;;15.50;99.90;;;;;;5124195;27;20034;-84
2023/07/30 01:20:24;;;;;;;13.02;4.60;;;15.50;99.90;;;;;;5104756;27;20092;-84
2023/07/30 01:22:49;;;;;;;14.45;4.72;;;15.50;99.90;;;;;;5129324;27;20401;-83
2023/07/30 01:25:15;;;;;;;14.82;4.03;;;15.50;99.90;;;;;;5091273;27;20039;-83
2023/07/30 01:27:51;;;;;;;11.02;3.95;;;15.50;99.90;;;;;;5084454;27;20055;-83
2023/07/30 01:30:25;;;;;;;15.45;4.20;;;15.60;99.90;;;;;;5086753;27;20100;-84
2023/07/30 01:32:52;;;;;;;15.55;4.82;;;15.60;99.90;;;;;;5090976;27;20033;-83
2023/07/30 01:35:22;;;;;;;12.45;4.18;;;15.60;99.90;;;;;;5112755;27;20038;-83
2023/07/30 01:37:48;;;;;;;14.27;4.28;;;15.60;99.90;;;;;;5081491;27;20030;-83
2023/07/30 01:40:14;;;;;;;15.82;4.22;;;15.60;99.90;;;;;;5108941;27;20444;-84
2023/07/30 01:42:40;;;;;;;12.70;3.80;;;15.60;99.90;;;;;;5103299;27;20134;-83
2023/07/30 01:45:06;;;;;;;11.82;4.15;;;15.60;99.90;;;;;;5091299;27;20134;-83
2023/07/30 01:47:34;;;;;;;13.55;3.83;;;15.60;99.90;;;;;;5094862;27;20047;-84
2023/07/30 01:50:00;;;;;;;10.85;4.50;;;15.60;99.90;;;;;;5089935;27;20030;-84
2023/07/30 01:52:26;;;;;;;12.45;4.38;;;15.60;99.90;;;;;;5097043;27;20055;-83
2023/07/30 01:54:51;;;;;;;11.82;4.50;;;15.50;99.90;;;;;;5127006;27;20039;-84
2023/07/30 01:57:17;;;;;;;19.80;4.55;;;15.60;99.90;;;;;;5104571;27;20118;-84
2023/07/30 01:59:43;;;;;;;13.15;4.03;;;15.60;99.90;;;;;;5090419;27;20038;-83
2023/07/30 02:02:09;;;;;;;14.23;4.07;;;15.60;99.90;;;;;;5109377;27;20470;-84
2023/07/30 02:04:34;;;;;;;11.77;4.18;;;15.60;99.90;;;;;;5094505;27;20054;-83
2023/07/30 02:07:00;;;;;;;10.45;3.97;;;15.60;99.90;;;;;;5105462;27;20131;-83
2023/07/30 02:09:25;;;;;;;11.52;4.30;;;15.60;99.90;;;;;;5088415;27;20051;-84
2023/07/30 02:11:51;;;;;;;14.45;4.63;;;15.60;99.90;;;;;;5094561;27;20026;-84
2023/07/30 02:14:18;;;;;;;11.95;4.22;;;15.50;99.90;;;;;;5114662;27;20382;-84
2023/07/30 02:16:44;;;;;;;15.57;4.50;;;15.50;99.90;;;;;;5105045;27;20035;-83
2023/07/30 02:19:12;;;;;;;15.63;4.05;;;15.50;99.90;;;;;;5097386;27;20503;-83
2023/07/30 02:21:42;;;;;;;10.18;3.72;;;15.50;99.90;;;;;;5117899;27;20207;-83
2023/07/30 02:24:11;;;;;;;13.73;4.13;;;15.40;99.90;;;;;;5113058;27;20046;-83
2023/07/30 02:26:40;;;;;;;16.45;4.25;;;15.40;99.90;;;;;;5083250;27;20038;-83
2023/07/30 02:29:06;;;;;;;11.30;3.42;;;15.40;99.90;;;;;;5087521;27;20035;-84
2023/07/30 02:31:32;;;;;;;13.27;4.20;;;15.40;99.90;;;;;;5102401;27;20049;-83
2023/07/30 02:33:58;;;;;;;15.90;3.78;;;15.40;99.90;;;;;;5089160;27;20035;-83
2023/07/30 02:36:24;;;;;;;18.58;4.38;;;15.40;99.90;;;;;;5102954;27;20118;-83
2023/07/30 02:38:50;;;;;;;18.50;4.50;;;15.40;99.90;;;;;;5091013;27;20366;-83
2023/07/30 02:41:16;;;;;;;16.35;4.35;;;15.30;99.90;;;;;;5096583;27;20051;-83
2023/07/30 02:43:44;;;;;;;19.75;4.28;;;15.40;99.90;;;;;;5089365;27;20062;-83
2023/07/30 02:46:10;;;;;;;13.23;4.40;;;15.30;99.90;;;;;;5089055;27;20145;-83
2023/07/30 02:48:36;;;;;;;13.27;4.35;;;15.30;99.90;;;;;;5092477;27;20247;-84
2023/07/30 02:51:02;;;;;;;12.60;4.45;;;15.30;99.90;;;;;;5092721;27;20074;-83
2023/07/30 02:53:27;;;;;;;14.57;3.88;;;15.30;99.90;;;;;;5121549;27;20043;-83
2023/07/30 02:55:53;;;;;;;15.15;4.22;;;15.30;99.90;;;;;;5132971;27;20462;-83
2023/07/30 02:58:19;;;;;;;13.52;4.03;;;15.30;99.90;;;;;;5126040;27;20031;-83
2023/07/30 03:00:44;;;;;;;15.75;4.35;;;15.30;99.90;;;;;;5129178;27;20441;-83
2023/07/30 03:03:13;;;;;;;11.82;3.60;;;15.30;99.90;;;;;;5097881;27;20423;-84
2023/07/30 03:05:42;;;;;;;14.43;4.63;;;15.30;99.90;;;;;;5082208;27;20869;-83
2023/07/30 03:08:08;;;;;;;12.77;4.30;;;15.30;99.90;;;;;;5098248;27;20035;-83
2023/07/30 03:10:33;;;;;;;17.13;4.20;;;15.20;99.90;;;;;;5112530;27;20096;-83
2023/07/30 03:12:59;;;;;;;13.82;4.07;;;15.20;99.90;;;;;;5086506;27;20046;-83
2023/07/30 03:15:26;;;;;;;14.60;4.10;;;15.20;99.90;;;;;;5090321;27;20027;-83
2023/07/30 03:17:52;;;;;;;15.35;4.40;;;15.20;99.90;;;;;;5085775;27;20042;-83
2023/07/30 03:20:20;;;;;;;11.40;4.38;;;15.20;99.90;;;;;;5094957;27;20336;-84
2023/07/30 03:22:46;;;;;;;19.70;4.25;;;15.20;99.90;;;;;;5080726;27;20050;-83
2023/07/30 03:25:12;;;;;;;16.13;4.90;;;15.20;99.90;;;;;;5090649;27;20066;-84
2023/07/30 03:27:37;;;;;;;9.50;4.20;;;15.20;99.90;;;;;;5110139;27;20053;-84
2023/07/30 03:30:04;;;;;;;20.60;4.22;;;15.20;99.90;;;;;;5090256;27;20066;-84
2023/07/30 03:32:30;;;;;;;11.38;3.65;;;15.10;99.90;;;;;;5094591;27;20665;-84
2023/07/30 03:34:56;;;;;;;11.65;3.88;;;15.10;99.90;;;;;;5116968;27;20034;-83
2023/07/30 03:37:21;;;;;;;17.30;4.00;;;15.10;99.90;;;;;;5121382;27;20044;-83
2023/07/30 03:39:47;;;;;;;14.32;3.92;;;15.10;99.90;;;;;;5107419;27;20108;-83
2023/07/30 03:42:12;;;;;;;11.65;3.90;;;15.10;99.90;;;;;;5121265;27;20063;-84
2023/07/30 03:44:38;;;;;;;11.02;4.32;;;15.10;99.90;;;;;;5095201;27;20440;-83
2023/07/30 03:47:04;;;;;;;12.55;4.07;;;15.10;99.90;;;;;;5101781;27;20039;-83
2023/07/30 03:49:29;;;;;;;11.25;4.13;;;15.00;99.90;;;;;;5102172;27;20125;-83
2023/07/30 03:51:55;;;;;;;10.73;3.85;;;15.00;99.90;;;;;;5096902;27;20261;-83
2023/07/30 03:54:20;;;;;;;14.50;3.80;;;15.00;99.90;;;;;;5124544;27;20039;-83
2023/07/30 03:56:46;;;;;;;13.30;3.60;;;15.00;99.90;;;;;;5108741;27;20422;-83
2023/07/30 03:59:12;;;;;;;10.20;3.42;;;14.90;99.90;;;;;;5117270;27;20162;-83
2023/07/30 04:01:38;;;;;;;10.55;3.70;;;14.90;99.90;;;;;;5097721;27;20085;-83
2023/07/30 04:04:03;;;;;;;11.48;4.20;;;14.90;99.90;;;;;;5086139;27;20035;-84
2023/07/30 04:06:29;;;;;;;11.75;3.65;;;14.90;99.90;;;;;;5086115;27;20462;-83
2023/07/30 04:08:55;;;;;;;14.93;3.83;;;14.90;99.90;;;;;;5127506;27;20190;-83
2023/07/30 04:11:20;;;;;;;13.10;3.72;;;14.90;99.90;;;;;;5113611;27;20180;-83
2023/07/30 04:13:46;;;;;;;15.63;4.50;;;14.90;99.90;;;;;;5090167;27;20057;-84
2023/07/30 04:16:12;;;;;;;11.07;3.38;;;14.90;99.90;;;;;;5126554;27;20027;-83
2023/07/30 04:18:37;;;;;;;12.20;4.63;;;14.90;99.90;;;;;;5082161;27;20047;-83
2023/07/30 04:21:03;;;;;;;15.65;3.47;;;15.00;99.90;;;;;;5083804;27;20045;-83
2023/07/30 04:23:29;;;;;;;13.15;3.75;;;15.00;99.90;;;;;;5087615;27;20042;-83
2023/07/30 04:25:54;;;;;;;15.35;4.35;;;15.00;99.90;;;;;;5092938;27;20492;-83
2023/07/30 04:28:20;;;;;;;13.63;4.00;;;15.00;99.90;;;;;;5103859;27;20039;-84
2023/07/30 04:30:48;;;;;;;10.93;3.50;;;15.00;99.90;;;;;;5122848;27;20127;-84
2023/07/30 04:33:14;;;;;;;12.98;4.05;;;15.00;99.90;;;;;;5110195;27;20039;-83
2023/07/30 04:35:40;;;;;;;11.27;3.38;;;15.10;99.90;;;;;;5086429;27;20038;-83
2023/07/30 04:38:09;;;;;;;14.20;3.60;;;15.10;99.90;;;;;;5092366;27;20448;-83
2023/07/30 04:40:34;;;;;;;11.32;3.53;;;15.10;99.90;;;;;;5103262;27;20089;-84
2023/07/30 04:43:00;;;;;;;12.82;3.60;;;15.10;99.90;;;;;;5090910;27;20339;-84
2023/07/30 04:45:25;;;;;;;10.88;3.53;;;15.20;99.90;;;;;;5098492;27;20317;-83
2023/07/30 04:47:51;;;;;;;12.75;4.07;;;15.30;99.90;;;;;;5114697;27;20039;-84
2023/07/30 04:50:17;;;;;;;14.45;3.90;;;15.40;99.90;;;;;;5086061;27;20101;-83
2023/07/30 04:52:42;;;;;;;14.88;3.70;;;15.40;99.90;;;;;;5101347;27;20192;-84
2023/07/30 04:55:08;;;;;;;14.15;3.58;;;15.60;99.90;;;;;;5124926;27;20469;-84
2023/07/30 04:57:34;;;;;;;12.20;3.40;;;15.70;99.90;;;;;;5090270;27;20027;-83
2023/07/30 05:00:00;;;;;;;9.13;3.30;;;15.70;99.90;;;;;;5090480;27;20516;-84
2023/07/30 05:02:26;;;;;;;13.48;3.70;;;15.80;99.90;;;;;;5096738;27;20043;-84
2023/07/30 05:04:51;;;;;;;12.52;3.20;;;15.80;99.90;;;;;;5085146;27;20038;-83
2023/07/30 05:07:17;;;;;;;13.40;3.70;;;15.80;99.90;;;;;;5092732;27;20283;-83
2023/07/30 05:09:43;;;;;;;8.85;3.13;;;15.80;99.90;;;;;;5092295;27;20043;-84
2023/07/30 05:12:08;;;;;;;10.35;3.30;;;15.90;99.90;;;;;;5096616;27;20035;-83
2023/07/30 05:14:34;;;;;;;12.27;3.25;;;15.80;99.90;;;;;;5111249;27;20369;-84
2023/07/30 05:16:59;;;;;;;11.68;3.30;;;15.90;99.90;;;;;;5104084;27;20096;-84
2023/07/30 05:19:25;;;;;;;13.15;3.25;;;16.00;99.90;;;;;;5085937;27;20073;-84
2023/07/30 05:21:51;;;;;;;13.90;3.42;;;16.00;99.90;;;;;;5096236;27;20126;-83
2023/07/30 05:24:16;;;;;;;9.38;3.70;;;16.00;99.90;;;;;;5092018;27;20046;-83
2023/07/30 05:26:42;;;;;;;11.52;2.95;;;16.10;99.90;;;;;;5109064;27;20035;-83
2023/07/30 05:29:07;;;;;;;9.57;3.67;;;16.10;99.90;;;;;;5108537;27;20079;-83
2023/07/30 05:31:34;;;;;;;12.45;4.00;;;16.20;99.90;;;;;;5088213;27;20043;-83
2023/07/30 05:33:59;;;;;;;12.73;3.47;;;16.30;99.90;;;;;;5105397;27;20327;-83
2023/07/30 05:36:25;;;;;;;14.05;3.50;;;16.40;99.90;;;;;;5089339;27;20061;-83
2023/07/30 05:38:51;;;;;;;14.50;3.35;;;16.50;99.90;;;;;;5110721;27;20092;-83
2023/07/30 05:41:16;;;;;;;15.20;3.78;;;16.60;99.90;;;;;;5128326;27;20037;-84
2023/07/30 05:43:44;;;;;;;11.30;3.28;;;16.70;99.90;;;;;;5100912;27;20570;-83
2023/07/30 05:46:10;;;;;;;14.23;3.10;;;16.70;99.90;;;;;;5088082;28;20048;-84
2023/07/30 05:48:35;;;;;;;18.15;3.53;;;16.70;99.90;;;;;;5066360;28;20048;-83
2023/07/30 05:51:02;;;;;;;12.65;3.30;;;16.90;99.90;;;;;;5086361;28;20039;-83
2023/07/30 05:53:27;;;;;;;12.45;3.75;;;16.90;99.90;;;;;;5067912;28;20044;-83
2023/07/30 05:55:53;;;;;;;15.15;3.92;;;17.10;99.90;;;;;;5073720;28;20483;-83
2023/07/30 05:58:19;;;;;;;9.73;3.25;;;17.10;99.90;;;;;;5089365;28;20160;-83
2023/07/30 06:00:44;;;;;;;12.05;3.40;;;17.10;99.90;;;;;;5084794;28;20117;-83
2023/07/30 06:03:11;;;;;;;12.73;2.95;;;17.10;99.90;;;;;;5087907;28;20036;-83
2023/07/30 06:05:40;;;;;;;8.98;3.13;;;17.10;99.90;;;;;;5085216;28;20059;-83
2023/07/30 06:08:07;;;;;;;15.85;3.55;;;17.00;99.90;;;;;;5069630;28;20591;-83
2023/07/30 06:10:38;;;;;;;8.27;2.92;;;17.10;99.90;;;;;;5068837;28;20709;-82
2023/07/30 06:13:06;;;;;;;11.30;3.78;;;17.10;99.90;;;;;;5089060;28;20371;-83
2023/07/30 06:15:33;;;;;;;8.40;2.92;;;17.10;99.90;;;;;;5084157;28;20067;-83
2023/07/30 06:18:00;;;;;;;8.98;3.17;;;17.10;99.90;;;;;;5091149;28;20182;-83
2023/07/30 06:20:26;;;;;;;10.18;3.10;;;17.10;99.90;;;;;;5073888;28;20059;-83
2023/07/30 06:22:51;;;;;;;12.85;3.55;;;17.30;99.90;;;;;;5063968;28;20135;-83
2023/07/30 06:25:17;;;;;;;10.95;3.15;;;17.10;99.90;;;;;;5089681;28;20074;-83
2023/07/30 06:27:45;;;;;;;8.80;2.88;;;17.20;99.90;;;;;;5089976;28;20036;-83
2023/07/30 06:30:11;;;;;;;12.43;3.50;;;17.20;99.90;;;;;;5090035;28;20044;-83
2023/07/30 06:32:37;;;;;;;11.60;3.30;;;17.20;99.90;;;;;;5066097;28;20488;-83
2023/07/30 06:35:03;;;;;;;10.38;3.20;;;17.20;99.90;;;;;;5091232;28;20490;-83
2023/07/30 06:37:29;;;;;;;12.45;3.08;;;17.30;99.90;;;;;;5068436;28;20058;-83
2023/07/30 06:39:57;;;;;;;12.82;3.10;;;17.30;99.90;;;;;;5085085;28;20421;-83
2023/07/30 06:42:23;;;;;;;9.60;3.45;;;17.50;99.90;;;;;;5065288;28;20040;-83
2023/07/30 06:44:49;;;;;;;8.68;3.15;;;17.50;99.90;;;;;;5098108;27;20572;-83
2023/07/30 06:47:14;;;;;;;7.80;2.75;;;17.50;99.90;;;;;;5099448;27;20036;-83
2023/07/30 06:49:40;;;;;;;9.90;2.95;;;17.60;99.90;;;;;;5111086;27;20047;-83
2023/07/30 06:52:06;;;;;;;9.20;3.30;;;17.70;99.90;;;;;;5080066;27;20079;-83
2023/07/30 06:54:31;;;;;;;11.00;3.40;;;17.90;99.90;;;;;;5090424;27;20092;-83
2023/07/30 06:56:57;;;;;;;13.85;2.88;;;17.80;99.90;;;;;;5098385;27;20036;-83
2023/07/30 06:59:23;;;;;;;12.50;3.55;;;17.90;99.90;;;;;;5092844;27;20161;-83
2023/07/30 07:01:48;;;;;;;9.05;3.42;;;17.90;99.90;;;;;;5087421;27;20462;-83
2023/07/30 07:04:15;;;;;;;12.02;3.92;;;17.90;99.90;;;;;;5079578;28;20035;-83
2023/07/30 07:06:40;;;;;;;10.40;3.28;;;17.80;99.90;;;;;;5093653;27;20039;-82
2023/07/30 07:09:06;;;;;;;13.35;3.40;;;17.90;99.90;;;;;;5104495;27;20035;-83
2023/07/30 07:11:31;;;;;;;9.35;3.45;;;18.00;99.90;;;;;;5103845;27;20035;-82
2023/07/30 07:13:57;;;;;;;8.80;3.10;;;17.90;99.90;;;;;;5095766;27;20096;-83
2023/07/30 07:16:23;;;;;;;7.88;3.00;;;18.00;99.90;;;;;;5105386;27;20043;-83
2023/07/30 07:18:49;;;;;;;12.30;3.53;;;18.00;99.90;;;;;;5100158;27;20494;-83
2023/07/30 07:21:14;;;;;;;14.23;3.38;;;18.00;99.90;;;;;;5081715;27;20039;-83
2023/07/30 07:23:40;;;;;;;13.38;3.95;;;18.00;99.90;;;;;;5085746;27;20133;-83
2023/07/30 07:26:05;;;;;;;12.20;3.10;;;18.00;99.90;;;;;;5110599;27;20105;-82
2023/07/30 07:28:31;;;;;;;13.45;3.35;;;17.90;99.90;;;;;;5087573;27;20093;-83
2023/07/30 07:30:57;;;;;;;10.98;3.35;;;18.00;99.90;;;;;;5085312;27;20058;-83
2023/07/30 07:33:22;;;;;;;10.30;3.40;;;18.00;99.90;;;;;;5102069;27;20040;-83
2023/07/30 07:35:48;;;;;;;7.65;2.50;;;18.00;99.90;;;;;;5081102;28;20070;-83
2023/07/30 07:38:14;;;;;;;14.88;3.38;;;18.20;99.90;;;;;;5106587;27;20196;-83
2023/07/30 07:40:40;;;;;;;15.55;3.50;;;18.30;99.90;;;;;;5080672;28;20221;-82
2023/07/30 07:43:09;;;;;;;7.47;2.92;;;18.40;99.90;;;;;;5077216;28;20101;-83
2023/07/30 07:45:38;;;;;;;12.65;3.15;;;18.50;99.90;;;;;;5101836;27;20104;-83
2023/07/30 07:48:03;;;;;;;10.98;2.80;;;18.70;99.90;;;;;;5094682;27;20057;-83
2023/07/30 07:50:29;;;;;;;7.90;2.72;;;19.00;99.90;;;;;;5085539;28;20043;-83
2023/07/30 07:52:55;;;;;;;10.45;2.78;;;19.20;99.90;;;;;;5100658;27;20036;-82
2023/07/30 07:55:20;;;;;;;9.57;3.15;;;19.20;99.90;;;;;;5108090;27;20226;-82
2023/07/30 07:57:46;;;;;;;11.60;3.00;;;19.30;99.90;;;;;;5110842;28;20378;-82
2023/07/30 08:00:12;;;;;;;7.00;2.00;;;19.50;99.90;;;;;;5087123;28;20187;-82
2023/07/30 08:02:37;;;;;;;5.53;2.35;;;19.90;99.90;;;;;;5092351;28;20685;-83
2023/07/30 08:05:03;;;;;;;9.80;2.30;;;20.30;99.90;;;;;;5100398;28;20064;-83
2023/07/30 08:07:29;;;;;;;8.15;2.00;;;19.60;99.90;;;;;;5085500;28;20044;-82
2023/07/30 08:09:54;;;;;;;10.20;3.03;;;19.70;99.90;;;;;;5095981;27;20126;-82
2023/07/30 08:12:20;;;;;;;8.00;1.92;;;19.40;99.90;;;;;;5082685;27;20446;-83
2023/07/30 08:14:46;;;;;;;10.07;1.90;;;19.10;99.90;;;;;;5106587;27;20167;-83
2023/07/30 08:17:11;;;;;;;6.40;1.55;;;19.00;99.90;;;;;;5092592;27;20136;-83
2023/07/30 08:19:37;;;;;;;8.07;2.28;;;18.60;99.90;;;;;;5096704;27;20038;-82
2023/07/30 08:22:03;;;;;;;6.03;1.45;;;18.30;99.90;;;;;;5084851;27;20032;-82
2023/07/30 08:24:29;;;;;;;5.97;1.88;;;18.10;99.90;;;;;;5102990;27;20081;-82
2023/07/30 08:26:55;;;;;;;4.07;1.30;;;18.00;99.90;;;;;;5103037;27;20038;-83
2023/07/30 08:29:20;;;;;;;5.38;1.40;;;17.70;99.90;;;;;;5103376;27;20035;-83
2023/07/30 08:31:46;;;;;;;5.90;1.73;;;17.60;99.90;;;;;;5085498;27;20552;-83
2023/07/30 08:34:13;;;;;;;5.38;1.40;;;17.60;99.90;;;;;;5100474;27;20036;-83
2023/07/30 08:36:41;;;;;;;5.22;1.65;;;17.90;99.90;;;;;;5099423;27;20054;-83
2023/07/30 08:39:06;;;;;;;9.40;2.15;;;18.10;99.90;;;;;;5086879;27;20496;-83
2023/07/30 08:41:32;;;;;;;6.20;1.75;;;17.90;99.90;;;;;;5109067;27;20186;-84
2023/07/30 08:43:59;;;;;;;5.60;1.55;;;18.00;99.90;;;;;;5111719;27;20055;-83
2023/07/30 08:46:24;;;;;;;6.50;1.77;;;18.00;99.90;;;;;;5088630;27;20975;-83
2023/07/30 08:48:50;;;;;;;6.63;1.75;;;17.90;99.90;;;;;;5082131;27;20060;-83
2023/07/30 08:51:16;;;;;;;5.72;1.80;;;18.20;99.90;;;;;;5103876;27;20470;-83
2023/07/30 08:53:42;;;;;;;7.85;1.38;;;18.20;99.90;;;;;;5092260;27;20043;-83
2023/07/30 08:56:12;;;;;;;4.28;1.50;;;18.30;99.90;;;;;;5086963;27;20373;-83
2023/07/30 08:58:42;;;;;;;6.00;1.40;;;18.60;99.90;;;;;;5104014;27;20047;-83
2023/07/30 09:01:12;;;;;;;6.15;1.65;;;18.70;99.90;;;;;;5094263;27;20035;-83
2023/07/30 09:03:40;;;;;;;4.20;1.60;;;18.90;99.90;;;;;;5103657;27;20055;-84
2023/07/30 09:06:06;;;;;;;4.75;1.67;;;19.20;99.90;;;;;;5086507;27;20040;-83
2023/07/30 09:08:32;;;;;;;5.50;1.73;;;19.20;99.90;;;;;;5091413;27;20350;-83
2023/07/30 09:11:11;;;;;;;7.50;1.75;;;19.70;99.90;;;;;;5087720;28;20044;-83
2023/07/30 09:13:41;;;;;;;4.03;1.50;;;20.00;99.90;;;;;;5090376;27;20031;-83
2023/07/30 09:16:15;;;;;;;7.10;1.45;;;19.90;99.90;;;;;;5083870;27;20031;-83
2023/07/30 09:18:42;;;;;;;8.70;1.65;;;19.70;99.90;;;;;;5082301;27;20387;-83
2023/07/30 09:21:09;;;;;;;5.35;1.75;;;19.50;99.90;;;;;;5097675;27;20045;-82
2023/07/30 09:23:43;;;;;;;5.43;1.80;;;19.30;99.90;;;;;;5100585;27;20039;-83
2023/07/30 09:26:10;;;;;;;5.00;1.88;;;19.10;99.90;;;;;;5081898;27;20039;-83
2023/07/30 09:28:35;;;;;;;8.23;2.17;;;19.10;99.90;;;;;;5102457;27;20058;-85
2023/07/30 09:31:08;;;;;;;6.28;2.05;;;18.70;99.90;;;;;;5092193;27;20043;-85
2023/07/30 09:33:38;;;;;;;5.72;1.92;;;18.40;99.90;;;;;;5111232;27;20426;-83
2023/07/30 09:36:04;;;;;;;8.48;1.80;;;18.20;99.90;;;;;;5101721;27;20050;-84
2023/07/30 09:38:32;;;;;;;7.75;2.35;;;18.10;99.90;;;;;;5102778;27;20039;-83
2023/07/30 09:41:02;;;;;;;5.40;1.83;;;18.00;99.90;;;;;;5123615;27;20388;-83
2023/07/30 09:43:31;;;;;;;5.60;1.95;;;18.00;99.90;;;;;;5100279;27;20151;-83
2023/07/30 09:46:06;;;;;;;4.70;1.52;;;17.90;99.90;;;;;;5111262;27;20046;-83
2023/07/30 09:48:33;;;;;;;3.33;1.13;;;18.10;99.90;;;;;;5128337;27;20063;-84
2023/07/30 09:51:03;;;;;;;6.10;1.15;;;18.40;99.90;;;;;;5114855;27;20455;-83
2023/07/30 09:53:34;;;;;;;3.70;1.70;;;18.60;99.90;;;;;;5097938;27;20075;-83
2023/07/30 09:56:07;;;;;;;6.63;1.70;;;18.70;99.90;;;;;;5108740;27;20047;-83
2023/07/30 09:58:32;;;;;;;5.88;1.70;;;18.70;99.90;;;;;;5087738;27;20111;-83
2023/07/30 10:01:00;;;;;;;2.33;1.15;;;18.80;99.90;;;;;;5091971;27;20134;-83
2023/07/30 10:03:29;;;;;;;4.97;1.45;;;18.90;99.90;;;;;;5106055;27;20158;-82
2023/07/30 10:06:08;;;;;;;3.38;1.42;;;18.80;99.90;;;;;;5075745;27;20463;-82
2023/07/30 10:08:38;;;;;;;4.78;1.42;;;18.70;99.90;;;;;;5106422;27;20050;-82
2023/07/30 10:11:07;;;;;;;2.60;1.13;;;18.40;99.90;;;;;;5082415;27;20315;-82
2023/07/30 10:13:36;;;;;;;4.60;1.85;;;18.30;99.90;;;;;;5093592;27;20061;-82
2023/07/30 10:16:02;;;;;;;3.50;1.20;;;18.40;99.90;;;;;;5110308;27;20408;-82
2023/07/30 10:18:41;;;;;;;2.38;1.10;;;18.30;99.90;;;;;;5095983;27;20061;-82
2023/07/30 10:21:11;;;;;;;3.22;1.10;;;18.50;99.90;;;;;;5099901;27;20039;-82
2023/07/30 10:23:50;;;;;;;3.92;1.40;;;18.50;99.90;;;;;;5096159;27;20501;-82
2023/07/30 10:26:15;;;;;;;2.25;1.10;;;18.70;99.90;;;;;;5104244;27;20077;-82
2023/07/30 10:28:43;;;;;;;3.20;1.20;;;19.10;99.90;;;;;;5108794;27;20078;-82
2023/07/30 10:31:10;;;;;;;3.65;1.00;;;19.20;99.90;;;;;;5083544;27;20390;-82
2023/07/30 10:33:53;;;;;;;5.07;1.30;;;19.40;99.90;;;;;;5094807;27;20038;-83
2023/07/30 10:36:45;;;;;;;4.55;1.35;;;20.30;99.90;;;;;;5093208;27;20060;-82
2023/07/30 10:39:16;;;;;;;3.42;1.25;;;20.30;99.90;;;;;;5103210;27;20432;-82
2023/07/30 10:41:44;;;;;;;5.22;1.92;;;19.50;99.90;;;;;;5087312;27;20042;-82
2023/07/30 10:44:27;;;;;;;4.78;1.48;;;19.50;99.90;;;;;;5097786;27;20150;-84
2023/07/30 10:46:55;;;;;;;4.38;1.45;;;19.90;99.90;;;;;;5088331;27;20039;-83
2023/07/30 10:49:21;;;;;;;4.18;1.23;;;19.70;99.90;;;;;;5102290;27;20273;-83
2023/07/30 10:51:47;;;;;;;6.07;2.00;;;19.30;99.90;;;;;;5086245;27;20042;-84
2023/07/30 10:54:12;;;;;;;4.30;1.58;;;19.10;99.90;;;;;;5093948;27;20041;-83
2023/07/30 10:56:40;;;;;;;6.85;2.17;;;18.80;99.90;;;;;;5082534;27;20128;-83
2023/07/30 10:59:07;;;;;;;3.97;1.35;;;18.30;99.90;;;;;;5089319;27;20027;-82
2023/07/30 11:01:43;;;;;;;3.25;1.30;;;18.40;99.90;;;;;;5125379;27;20039;-83
2023/07/30 11:04:27;;;;;;;4.28;1.75;;;18.80;99.90;;;;;;5103645;27;20083;-83
2023/07/30 11:06:52;;;;;;;5.85;1.90;;;19.40;99.90;;;;;;5084117;27;20339;-83
2023/07/30 11:09:22;;;;;;;6.13;1.58;;;19.70;99.90;;;;;;5104740;27;20189;-83
2023/07/30 11:11:50;;;;;;;3.88;1.50;;;19.80;99.90;;;;;;5099951;27;20142;-83
2023/07/30 11:14:25;;;;;;;5.95;1.60;;;20.60;99.90;;;;;;5096006;27;20289;-82
2023/07/30 11:16:59;;;;;;;10.68;2.55;;;20.60;99.90;;;;;;5105108;27;20437;-83
2023/07/30 11:19:27;;;;;;;9.15;2.30;;;20.80;99.90;;;;;;5095068;27;20054;-82
2023/07/30 11:21:54;;;;;;;8.30;2.17;;;21.70;99.90;;;;;;5123076;27;20047;-82
2023/07/30 11:24:21;;;;;;;6.18;2.28;;;21.40;99.90;;;;;;5109777;27;20054;-82
2023/07/30 11:26:57;;;;;;;6.00;2.33;;;21.60;99.90;;;;;;5096393;27;20078;-82
2023/07/30 11:29:22;;;;;;;6.70;1.70;;;21.80;99.90;;;;;;5104883;27;20042;-82
2023/07/30 11:31:48;;;;;;;5.78;2.42;;;21.00;99.90;;;;;;5112500;27;20045;-83
2023/07/30 11:34:14;;;;;;;7.72;2.22;;;21.50;99.90;;;;;;5089070;27;20478;-82
2023/07/30 11:36:42;;;;;;;5.55;1.75;;;21.80;99.90;;;;;;5109613;27;20027;-83
2023/07/30 11:39:08;;;;;;;6.22;1.70;;;21.80;99.90;;;;;;5089261;27;20150;-82
2023/07/30 11:41:34;;;;;;;5.78;1.70;;;21.60;99.90;;;;;;5093978;27;20043;-82
2023/07/30 11:43:59;;;;;;;4.65;1.63;;;22.00;99.90;;;;;;5108547;27;20054;-83
2023/07/30 11:46:25;;;;;;;5.25;1.45;;;22.00;99.90;;;;;;5124078;27;20062;-83
2023/07/30 11:49:09;;;;;;;4.57;1.50;;;21.10;99.90;;;;;;5097610;27;20053;-83
2023/07/30 11:51:35;;;;;;;3.37;1.33;;;20.70;99.90;;;;;;5108732;27;20494;-82
2023/07/30 11:54:02;;;;;;;6.25;1.83;;;20.60;99.90;;;;;;5127542;27;20046;-82
2023/07/30 11:56:32;;;;;;;5.45;1.45;;;20.50;99.90;;;;;;5096620;27;20489;-83
2023/07/30 11:58:58;;;;;;;4.65;1.48;;;21.20;99.90;;;;;;5096771;27;20047;-83
2023/07/30 12:01:30;;;;;;;5.80;1.27;;;21.30;99.90;;;;;;5105921;27;20042;-83
2023/07/30 12:03:58;;;;;;;6.95;1.40;;;21.80;99.90;;;;;;5117042;27;20039;-82
2023/07/30 12:06:24;;;;;;;7.70;1.48;;;21.80;99.90;;;;;;5098712;27;20077;-83
2023/07/30 12:08:51;;;;;;;4.63;1.40;;;21.10;99.90;;;;;;5091802;27;20133;-83
2023/07/30 12:11:21;;;;;;;5.45;1.58;;;21.50;99.90;;;;;;5109959;27;21040;-83
2023/07/30 12:13:47;;;;;;;8.48;2.17;;;21.00;99.90;;;;;;5088216;27;20374;-83
2023/07/30 12:16:14;;;;;;;6.85;1.75;;;20.90;99.90;;;;;;5105006;27;20034;-83
2023/07/30 12:18:40;;;;;;;6.60;2.20;;;20.70;99.90;;;;;;5090862;27;20031;-83
2023/07/30 12:21:07;;;;;;;5.50;1.20;;;19.90;99.90;;;;;;5085162;27;20051;-84
2023/07/30 12:23:34;;;;;;;7.45;1.77;;;19.10;99.90;;;;;;5086383;27;20444;-84
2023/07/30 12:25:59;;;;;;;6.28;1.50;;;18.60;99.90;;;;;;5105778;27;20047;-83
2023/07/30 12:28:25;;;;;;;6.53;1.60;;;18.30;99.90;;;;;;5099106;27;20054;-83
2023/07/30 12:30:51;;;;;;;4.63;1.42;;;18.20;99.90;;;;;;5087481;27;20035;-84
2023/07/30 12:33:16;;;;;;;4.70;1.30;;;17.90;99.90;;;;;;5087100;27;20047;-84
2023/07/30 12:35:43;;;;;;;4.82;1.45;;;18.10;99.90;;;;;;5077184;27;20499;-84
2023/07/30 12:38:08;;;;;;;4.90;1.95;;;18.30;99.90;;;;;;5089908;27;20192;-84
2023/07/30 12:40:34;;;;;;;3.95;1.38;;;18.90;99.90;;;;;;5114704;27;20042;-83